Time;durP1;ratioP1;P1;durP2;ratioP2;P2;SDS_P1;SDS_P2;PMS_P1;PMS_P2;Temp;Humidity;BMP_temperature;BMP_pressure;BME280_temperature;BME280_humidity;BME280_pressure;Samples;Min_cycle;Max_cycle;Signal;HPM_P1;HPM_P2
2022/04/18 14:34:40;;;;;;;6.15;1.70;;;17.40;44.90;;;;;;5120570;27;20357;-54
2022/04/18 14:37:07;;;;;;;5.03;1.88;;;17.40;47.50;;;;;;5096097;28;20429;-51
2022/04/18 14:39:34;;;;;;;5.22;1.77;;;17.60;48.20;;;;;;5090025;28;20045;-55
2022/04/18 14:42:01;;;;;;;3.58;1.67;;;17.80;47.10;;;;;;5085118;28;20040;-56
2022/04/18 14:44:27;;;;;;;5.95;1.77;;;17.90;44.80;;;;;;5083714;28;20111;-55
2022/04/18 14:46:54;;;;;;;3.63;1.67;;;17.90;45.90;;;;;;5082226;28;20040;-54
2022/04/18 14:49:21;;;;;;;4.22;1.65;;;18.00;45.90;;;;;;5085334;28;20064;-52
2022/04/18 14:51:51;;;;;;;3.45;1.65;;;18.20;45.30;;;;;;5084693;28;20051;-52
2022/04/18 14:54:18;;;;;;;7.53;2.03;;;18.30;44.80;;;;;;5083199;28;20068;-54
2022/04/18 14:56:45;;;;;;;7.03;1.60;;;18.40;45.40;;;;;;5076784;28;20038;-51
2022/04/18 14:59:12;;;;;;;4.13;1.40;;;18.50;43.30;;;;;;5088096;28;20437;-56
2022/04/18 15:01:39;;;;;;;7.82;1.75;;;18.50;42.50;;;;;;5077399;28;20063;-55
2022/04/18 15:04:06;;;;;;;3.88;1.90;;;18.50;43.00;;;;;;5078770;28;20036;-51
2022/04/18 15:06:32;;;;;;;4.72;1.70;;;18.70;43.50;;;;;;5076322;28;20094;-51
2022/04/18 15:08:59;;;;;;;4.32;1.85;;;18.70;43.10;;;;;;5083320;28;20045;-55
2022/04/18 15:11:26;;;;;;;5.88;1.70;;;18.70;43.40;;;;;;5089432;28;20520;-52
2022/04/18 15:13:52;;;;;;;4.75;1.80;;;18.70;44.40;;;;;;5090738;28;20064;-53
2022/04/18 15:16:19;;;;;;;5.00;1.60;;;18.60;45.10;;;;;;5089795;28;20536;-56
2022/04/18 15:18:46;;;;;;;5.18;1.35;;;18.60;45.20;;;;;;5080502;28;20041;-51
2022/04/18 15:21:13;;;;;;;6.13;2.25;;;18.50;43.90;;;;;;5079843;28;20032;-55
2022/04/18 15:23:40;;;;;;;5.72;2.28;;;18.60;44.40;;;;;;5088436;28;20032;-57
2022/04/18 15:26:07;;;;;;;6.03;1.67;;;18.70;44.50;;;;;;5077718;28;20036;-56
2022/04/18 15:28:33;;;;;;;3.78;1.50;;;18.70;44.10;;;;;;5074034;28;20080;-55
2022/04/18 15:33:46;;;;;;;;;;;18.70;44.10;;;;;;5092733;28;20106;-53
2022/04/18 15:36:12;;;;;;;5.82;1.67;;;18.70;43.50;;;;;;5088779;28;20428;-54
2022/04/18 15:38:40;;;;;;;4.45;1.48;;;18.60;45.20;;;;;;5088485;28;20044;-55
2022/04/18 15:41:07;;;;;;;5.38;1.60;;;18.60;44.90;;;;;;5088714;28;20118;-51
2022/04/18 15:43:33;;;;;;;4.95;1.50;;;18.70;44.00;;;;;;5088502;28;20041;-54
2022/04/18 15:46:00;;;;;;;7.13;1.45;;;18.70;43.00;;;;;;5075651;28;20070;-56
2022/04/18 15:48:27;;;;;;;6.97;1.73;;;18.50;41.90;;;;;;5070405;28;20045;-54
2022/04/18 15:50:53;;;;;;;5.68;1.80;;;18.30;41.50;;;;;;5056437;28;20037;-57
2022/04/18 15:53:20;;;;;;;4.68;1.58;;;18.20;42.40;;;;;;5056144;28;20043;-54
2022/04/18 15:55:47;;;;;;;6.95;1.60;;;18.30;43.70;;;;;;5061298;28;20083;-53
2022/04/18 15:58:14;;;;;;;6.15;1.50;;;18.40;43.70;;;;;;5075363;28;20040;-55
2022/04/18 16:00:41;;;;;;;5.53;1.67;;;18.50;42.80;;;;;;5074072;28;20510;-56
2022/04/18 16:03:07;;;;;;;4.53;1.45;;;18.40;41.90;;;;;;5074492;28;20055;-55
2022/04/18 16:05:34;;;;;;;5.03;1.73;;;18.40;42.20;;;;;;5073780;28;20044;-56
2022/04/18 16:08:01;;;;;;;4.65;1.33;;;18.30;42.50;;;;;;5074812;28;20530;-54
2022/04/18 16:10:28;;;;;;;5.50;1.42;;;18.30;42.40;;;;;;5066605;28;20098;-55
2022/04/18 16:12:54;;;;;;;4.15;1.90;;;18.30;42.00;;;;;;5064793;28;20144;-53
2022/04/18 16:15:21;;;;;;;4.47;1.42;;;18.10;42.20;;;;;;5055546;28;20112;-56
2022/04/18 16:17:48;;;;;;;4.82;1.65;;;18.10;43.60;;;;;;5055510;28;20115;-53
2022/04/18 16:20:16;;;;;;;3.67;1.70;;;18.20;44.00;;;;;;5055315;28;20120;-52
2022/04/18 16:22:44;;;;;;;4.63;1.88;;;18.30;44.80;;;;;;5055143;28;20044;-56
2022/04/18 16:25:10;;;;;;;3.80;1.50;;;18.40;44.00;;;;;;5059839;28;20068;-56
2022/04/18 16:27:37;;;;;;;3.55;1.60;;;18.50;44.30;;;;;;5074334;28;20036;-54
2022/04/18 16:32:49;;;;;;;5.15;1.58;;;18.40;41.90;;;;;;5073904;28;20045;-52
2022/04/18 16:35:15;;;;;;;4.25;1.63;;;18.30;42.50;;;;;;5072923;28;20087;-53
2022/04/18 16:37:42;;;;;;;4.78;1.92;;;18.30;43.30;;;;;;5054945;28;20048;-54
2022/04/18 16:40:09;;;;;;;9.20;2.17;;;18.20;43.00;;;;;;5060226;28;20093;-50
2022/04/18 16:48:07;;;;;;;7.53;1.97;;;18.30;43.10;;;;;;5054969;28;20008;-59
2022/04/18 16:50:34;;;;;;;9.02;2.60;;;18.40;44.10;;;;;;5057604;28;20107;-58
2022/04/18 16:53:06;;;;;;;4.90;1.90;;;18.50;43.30;;;;;;5064828;28;20200;-59
2022/04/18 16:55:33;;;;;;;8.57;3.00;;;18.50;42.40;;;;;;5072615;28;20040;-58
2022/04/18 16:57:59;;;;;;;6.05;2.60;;;18.50;43.50;;;;;;5059995;28;20048;-55
2022/04/18 17:00:26;;;;;;;5.28;1.65;;;18.50;43.70;;;;;;5072382;28;20447;-55
2022/04/18 17:02:53;;;;;;;6.65;1.85;;;18.40;42.20;;;;;;5073948;28;20127;-56
2022/04/18 17:05:22;;;;;;;5.38;1.80;;;18.40;43.00;;;;;;5072372;28;20054;-59
2022/04/18 17:07:49;;;;;;;6.32;2.20;;;18.40;43.40;;;;;;5066301;28;20045;-54
2022/04/18 17:10:17;;;;;;;5.25;2.00;;;18.40;43.30;;;;;;5068866;28;20057;-56
2022/04/18 17:12:44;;;;;;;5.60;3.00;;;18.30;42.90;;;;;;5067623;28;20037;-55
2022/04/18 17:15:11;;;;;;;7.53;2.38;;;18.20;43.30;;;;;;5066491;28;20033;-54
2022/04/18 17:17:38;;;;;;;7.55;3.15;;;18.20;44.00;;;;;;5066352;28;20115;-59
2022/04/18 17:20:04;;;;;;;9.43;2.75;;;18.10;43.40;;;;;;5072282;28;20048;-51
2022/04/18 17:22:34;;;;;;;4.80;1.88;;;18.10;44.00;;;;;;5073361;28;20484;-57
2022/04/18 17:25:01;;;;;;;4.20;1.83;;;18.10;43.80;;;;;;5059013;28;20072;-59
2022/04/18 17:27:27;;;;;;;10.02;3.80;;;18.10;44.40;;;;;;5056117;28;20472;-56
2022/04/18 17:29:54;;;;;;;4.65;2.17;;;18.10;45.00;;;;;;5060606;28;20048;-59
2022/04/18 17:32:21;;;;;;;6.82;2.00;;;18.00;44.30;;;;;;5055700;28;20091;-58
2022/04/18 17:34:48;;;;;;;3.05;1.48;;;17.90;44.10;;;;;;5067490;28;20056;-58
2022/04/18 17:37:15;;;;;;;6.13;1.98;;;17.70;44.20;;;;;;5054005;28;20052;-56
2022/04/18 17:39:42;;;;;;;4.45;1.70;;;17.80;45.50;;;;;;5053858;28;20100;-55
2022/04/18 17:42:08;;;;;;;6.63;1.70;;;17.80;45.10;;;;;;5063214;28;20483;-57
2022/04/18 17:44:36;;;;;;;6.45;1.73;;;17.70;45.00;;;;;;5065074;28;20071;-58
2022/04/18 17:47:08;;;;;;;7.57;1.88;;;17.70;45.10;;;;;;5066237;28;20548;-63
2022/04/18 17:49:35;;;;;;;5.50;2.10;;;17.60;46.00;;;;;;5065488;28;20491;-57
2022/04/18 17:52:02;;;;;;;6.72;2.05;;;17.50;46.30;;;;;;5062716;28;20040;-57
2022/04/18 17:57:14;;;;;;;5.03;1.92;;;17.30;46.60;;;;;;5064432;28;20041;-54
2022/04/18 17:59:40;;;;;;;5.82;2.53;;;17.20;46.40;;;;;;5064115;28;20071;-57
2022/04/18 18:02:07;;;;;;;12.15;4.82;;;17.20;46.70;;;;;;5068961;28;20049;-58
2022/04/18 18:04:34;;;;;;;6.97;2.97;;;17.20;46.90;;;;;;5063528;28;20040;-58
2022/04/18 18:07:01;;;;;;;5.75;2.30;;;17.20;46.90;;;;;;5058500;28;20052;-55
2022/04/18 18:09:28;;;;;;;8.45;1.98;;;17.20;46.60;;;;;;5072385;28;20032;-54
2022/04/18 18:11:54;;;;;;;9.43;2.95;;;17.20;47.00;;;;;;5055377;28;20060;-58
2022/04/18 18:14:21;;;;;;;5.60;1.80;;;17.20;47.00;;;;;;5063076;28;20429;-55
2022/04/18 18:16:49;;;;;;;8.35;2.15;;;17.10;47.70;;;;;;5064626;28;20116;-52
2022/04/18 18:19:16;;;;;;;6.07;2.30;;;17.00;47.80;;;;;;5069312;28;20388;-54
2022/04/18 18:21:43;;;;;;;3.40;2.00;;;17.00;48.30;;;;;;5070106;28;20029;-56
2022/04/18 18:24:10;;;;;;;6.82;2.42;;;16.90;48.10;;;;;;5072008;28;20036;-55
2022/04/18 18:26:36;;;;;;;5.97;2.40;;;16.90;48.20;;;;;;5062937;28;20063;-57
2022/04/18 18:29:03;;;;;;;6.20;1.98;;;16.80;48.30;;;;;;5061995;28;20060;-56
2022/04/18 18:31:30;;;;;;;6.50;2.38;;;16.80;47.90;;;;;;5062313;28;20040;-56
2022/04/18 18:33:57;;;;;;;6.05;2.28;;;16.70;48.60;;;;;;5068330;28;20127;-58
2022/04/18 18:36:25;;;;;;;6.43;2.55;;;16.80;48.80;;;;;;5068193;28;20491;-56
2022/04/18 18:38:51;;;;;;;6.65;1.90;;;16.70;48.60;;;;;;5066555;28;20067;-58
2022/04/18 18:41:18;;;;;;;5.20;2.10;;;16.70;49.20;;;;;;5069807;28;20044;-55
2022/04/18 18:43:45;;;;;;;5.05;1.98;;;16.60;49.60;;;;;;5069064;28;20048;-59
2022/04/18 18:46:12;;;;;;;5.68;2.10;;;16.60;50.20;;;;;;5061895;28;20044;-54
2022/04/18 18:48:38;;;;;;;7.63;2.40;;;16.50;50.10;;;;;;5067593;28;20043;-56
2022/04/18 18:53:51;;;;;;;5.47;2.33;;;16.40;51.00;;;;;;5067380;28;20399;-56
2022/04/18 18:56:17;;;;;;;5.63;2.00;;;16.40;51.10;;;;;;5060765;28;20086;-56
2022/04/18 18:58:50;;;;;;;7.03;2.38;;;16.30;50.90;;;;;;5068874;28;20115;-58
2022/04/18 19:01:17;;;;;;;7.90;2.08;;;16.20;51.50;;;;;;5055526;28;20036;-58
2022/04/18 19:03:44;;;;;;;8.48;2.67;;;16.10;52.10;;;;;;5062625;28;20060;-54
2022/04/18 19:06:11;;;;;;;6.80;2.25;;;16.10;52.60;;;;;;5057859;28;20051;-56
2022/04/18 19:08:37;;;;;;;5.97;1.92;;;16.00;52.90;;;;;;5067635;28;20049;-56
2022/04/18 19:11:04;;;;;;;7.05;2.22;;;15.90;52.70;;;;;;5065514;28;20040;-57
2022/04/18 19:13:31;;;;;;;8.52;2.10;;;15.90;52.60;;;;;;5067225;28;20541;-60
2022/04/18 19:15:58;;;;;;;7.82;2.47;;;15.80;52.80;;;;;;5064635;28;20032;-57
2022/04/18 19:26:41;;;;;;;11.48;2.20;;;15.50;54.30;;;;;;5065946;28;20041;-58
2022/04/18 19:29:11;;;;;;;9.20;2.72;;;15.40;54.60;;;;;;5066877;28;20037;-56
2022/04/18 19:31:40;;;;;;;10.40;3.05;;;15.40;54.80;;;;;;5062561;28;20044;-56
2022/04/18 19:34:08;;;;;;;5.57;2.58;;;15.30;55.80;;;;;;5067302;28;20525;-57
2022/04/18 19:36:34;;;;;;;7.35;2.75;;;15.20;55.90;;;;;;5068679;28;20033;-58
2022/04/18 19:39:01;;;;;;;7.53;3.13;;;15.10;56.00;;;;;;5071609;28;20068;-60
2022/04/18 19:41:30;;;;;;;8.65;3.20;;;15.10;56.70;;;;;;5069736;28;20037;-59
2022/04/18 19:43:57;;;;;;;8.73;3.13;;;15.00;57.00;;;;;;5069864;28;20102;-55
2022/04/18 19:46:24;;;;;;;6.35;3.10;;;14.90;57.00;;;;;;5065443;28;20394;-55
2022/04/18 19:48:50;;;;;;;7.82;2.60;;;14.80;57.70;;;;;;5065075;28;20049;-55
2022/04/18 19:51:21;;;;;;;9.07;3.92;;;14.70;57.80;;;;;;5061037;28;20043;-56
2022/04/18 19:53:50;;;;;;;8.32;2.72;;;14.70;58.10;;;;;;5064121;28;20103;-58
2022/04/18 19:56:17;;;;;;;7.60;2.75;;;14.60;58.90;;;;;;5071731;28;20037;-53
2022/04/18 19:58:45;;;;;;;8.35;2.45;;;14.60;58.90;;;;;;5065510;28;20068;-56
2022/04/18 20:01:13;;;;;;;7.63;3.22;;;14.60;58.50;;;;;;5065501;28;20040;-58
2022/04/18 20:03:40;;;;;;;10.25;3.00;;;14.50;59.30;;;;;;5064593;28;20075;-58
2022/04/18 20:06:06;;;;;;;9.35;2.63;;;14.50;60.30;;;;;;5060943;28;20103;-52
2022/04/18 20:08:34;;;;;;;8.50;3.33;;;14.50;61.00;;;;;;5074437;28;20040;-57
2022/04/18 20:11:01;;;;;;;11.50;4.20;;;14.40;61.50;;;;;;5070905;28;20033;-56
2022/04/18 20:13:27;;;;;;;7.50;3.42;;;14.40;62.00;;;;;;5062553;28;20064;-57
2022/04/18 20:15:54;;;;;;;8.05;3.70;;;14.30;62.40;;;;;;5070427;28;20032;-56
2022/04/18 20:18:21;;;;;;;7.45;3.75;;;14.20;62.90;;;;;;5059857;28;20064;-57
2022/04/18 20:20:51;;;;;;;7.68;2.85;;;14.10;63.10;;;;;;5057189;28;20045;-58
2022/04/18 20:23:18;;;;;;;10.52;3.33;;;14.10;63.60;;;;;;5067403;28;20072;-58
2022/04/18 20:25:46;;;;;;;9.48;2.72;;;14.00;64.70;;;;;;5062788;28;20040;-56
2022/04/18 20:28:13;;;;;;;7.47;2.72;;;13.90;65.20;;;;;;5068414;28;20044;-54
2022/04/18 20:30:40;;;;;;;9.90;2.92;;;13.90;65.20;;;;;;5060681;28;20074;-54
2022/04/18 20:33:08;;;;;;;10.05;3.38;;;13.80;65.60;;;;;;5068384;28;20041;-57
2022/04/18 20:35:35;;;;;;;8.02;3.00;;;13.70;65.50;;;;;;5070473;28;20400;-53
2022/04/18 20:38:02;;;;;;;12.48;3.10;;;13.70;66.40;;;;;;5067210;28;20059;-54
2022/04/18 20:40:29;;;;;;;10.20;3.40;;;13.60;66.60;;;;;;5049637;28;20036;-56
2022/04/18 20:42:57;;;;;;;9.98;3.47;;;13.50;67.30;;;;;;5060419;28;20055;-56
2022/04/18 20:45:23;;;;;;;8.88;3.20;;;13.40;68.40;;;;;;5071507;28;20037;-55
2022/04/18 20:47:50;;;;;;;7.25;2.92;;;13.40;70.20;;;;;;5062701;28;20094;-56
2022/04/18 20:50:17;;;;;;;11.07;3.60;;;13.30;71.00;;;;;;5065063;28;20563;-54
